sensor_id;sensor_type;location;lat;lon;timestamp;pressure;altitude;pressure_sealevel;temperature;humidity
53715;BME280;39608;55.630;37.864;2023-05-01T00:00:19;98561.44;;;7.93;67.00
53715;BME280;39608;55.630;37.864;2023-05-01T00:05:22;98565.75;;;7.94;66.51
53715;BME280;39608;55.630;37.864;2023-05-01T00:10:25;98566.53;;;7.94;67.05
53715;BME280;39608;55.630;37.864;2023-05-01T00:15:29;98581.53;;;8.00;66.95
53715;BME280;39608;55.630;37.864;2023-05-01T00:20:32;98547.75;;;7.89;66.93
53715;BME280;39608;55.630;37.864;2023-05-01T00:25:34;98553.16;;;7.89;66.73
53715;BME280;39608;55.630;37.864;2023-05-01T00:30:37;98574.63;;;7.94;66.66
53715;BME280;39608;55.630;37.864;2023-05-01T00:35:42;98538.53;;;7.90;67.01
53715;BME280;39608;55.630;37.864;2023-05-01T00:40:46;98512.84;;;7.79;67.15
53715;BME280;39608;55.630;37.864;2023-05-01T00:45:49;98541.75;;;7.92;67.66
53715;BME280;39608;55.630;37.864;2023-05-01T00:50:52;98547.31;;;7.96;67.67
53715;BME280;39608;55.630;37.864;2023-05-01T00:55:55;98528.75;;;7.80;68.09
53715;BME280;39608;55.630;37.864;2023-05-01T01:00:59;98565.03;;;8.02;67.55
53715;BME280;39608;55.630;37.864;2023-05-01T01:06:06;98543.53;;;7.97;68.25
53715;BME280;39608;55.630;37.864;2023-05-01T01:11:15;98570.22;;;8.12;67.91
53715;BME280;39608;55.630;37.864;2023-05-01T01:16:28;98507.13;;;7.94;67.94
53715;BME280;39608;55.630;37.864;2023-05-01T01:21:34;98537.03;;;8.12;67.60
53715;BME280;39608;55.630;37.864;2023-05-01T01:27:05;98449.59;;;7.85;67.46
53715;BME280;39608;55.630;37.864;2023-05-01T01:32:30;98483.44;;;8.05;66.67
53715;BME280;39608;55.630;37.864;2023-05-01T01:37:41;98474.13;;;7.97;67.29
53715;BME280;39608;55.630;37.864;2023-05-01T01:42:50;98471.63;;;8.01;67.11
53715;BME280;39608;55.630;37.864;2023-05-01T01:47:53;98466.78;;;7.89;67.12
53715;BME280;39608;55.630;37.864;2023-05-01T01:53:00;98489.34;;;7.93;66.86
53715;BME280;39608;55.630;37.864;2023-05-01T01:58:04;98511.53;;;7.90;67.10
53715;BME280;39608;55.630;37.864;2023-05-01T02:03:08;98457.00;;;7.65;67.48
53715;BME280;39608;55.630;37.864;2023-05-01T02:08:13;98470.44;;;7.93;67.07
53715;BME280;39608;55.630;37.864;2023-05-01T02:13:18;98510.44;;;7.91;67.64
53715;BME280;39608;55.630;37.864;2023-05-01T02:18:22;98533.03;;;7.95;67.47
53715;BME280;39608;55.630;37.864;2023-05-01T02:23:26;98537.13;;;8.07;68.10
53715;BME280;39608;55.630;37.864;2023-05-01T02:28:31;98538.53;;;8.04;68.29
53715;BME280;39608;55.630;37.864;2023-05-01T02:33:35;98516.13;;;8.03;67.47
53715;BME280;39608;55.630;37.864;2023-05-01T02:38:38;98569.50;;;8.20;67.84
53715;BME280;39608;55.630;37.864;2023-05-01T02:43:41;98581.69;;;8.32;68.29
53715;BME280;39608;55.630;37.864;2023-05-01T02:48:45;98566.09;;;8.43;67.87
53715;BME280;39608;55.630;37.864;2023-05-01T02:53:48;98509.41;;;8.15;67.46
53715;BME280;39608;55.630;37.864;2023-05-01T02:58:50;98563.28;;;8.48;67.65
53715;BME280;39608;55.630;37.864;2023-05-01T03:03:52;98544.09;;;8.49;67.48
53715;BME280;39608;55.630;37.864;2023-05-01T03:08:56;98540.47;;;8.54;66.98
53715;BME280;39608;55.630;37.864;2023-05-01T03:13:58;98541.56;;;8.53;67.07
53715;BME280;39608;55.630;37.864;2023-05-01T03:19:00;98548.06;;;8.52;67.16
53715;BME280;39608;55.630;37.864;2023-05-01T03:24:04;98578.47;;;8.57;67.12
53715;BME280;39608;55.630;37.864;2023-05-01T03:29:07;98568.47;;;8.58;66.52
53715;BME280;39608;55.630;37.864;2023-05-01T03:34:09;98550.75;;;8.52;66.89
53715;BME280;39608;55.630;37.864;2023-05-01T03:39:13;98583.25;;;8.75;66.81
53715;BME280;39608;55.630;37.864;2023-05-01T03:44:15;98571.75;;;8.69;66.52
53715;BME280;39608;55.630;37.864;2023-05-01T03:49:17;98571.31;;;8.76;66.68
53715;BME280;39608;55.630;37.864;2023-05-01T03:54:20;98579.44;;;8.98;66.21
53715;BME280;39608;55.630;37.864;2023-05-01T03:59:23;98589.50;;;9.06;65.84
53715;BME280;39608;55.630;37.864;2023-05-01T04:04:25;98588.78;;;9.15;66.05
53715;BME280;39608;55.630;37.864;2023-05-01T04:09:30;98568.38;;;9.08;65.72
53715;BME280;39608;55.630;37.864;2023-05-01T04:14:32;98547.91;;;8.94;65.81
53715;BME280;39608;55.630;37.864;2023-05-01T04:19:34;98566.47;;;9.09;65.62
53715;BME280;39608;55.630;37.864;2023-05-01T04:24:38;98594.94;;;9.29;66.33
53715;BME280;39608;55.630;37.864;2023-05-01T04:29:41;98601.53;;;9.46;66.05
53715;BME280;39608;55.630;37.864;2023-05-01T04:34:43;98587.06;;;9.41;65.56
53715;BME280;39608;55.630;37.864;2023-05-01T04:39:47;98615.53;;;9.70;65.70
53715;BME280;39608;55.630;37.864;2023-05-01T04:44:50;98602.19;;;9.74;65.75
53715;BME280;39608;55.630;37.864;2023-05-01T04:49:52;98601.91;;;9.93;65.70
53715;BME280;39608;55.630;37.864;2023-05-01T04:54:56;98601.34;;;10.05;65.65
53715;BME280;39608;55.630;37.864;2023-05-01T04:59:58;98610.28;;;10.14;64.62
53715;BME280;39608;55.630;37.864;2023-05-01T05:05:00;98610.94;;;10.20;65.16
53715;BME280;39608;55.630;37.864;2023-05-01T05:10:06;98604.13;;;10.31;65.41
53715;BME280;39608;55.630;37.864;2023-05-01T05:15:09;98578.72;;;10.18;64.70
53715;BME280;39608;55.630;37.864;2023-05-01T05:20:11;98617.38;;;10.33;64.40
53715;BME280;39608;55.630;37.864;2023-05-01T05:25:16;98618.16;;;10.33;64.20
53715;BME280;39608;55.630;37.864;2023-05-01T05:30:18;98614.00;;;10.27;63.68
53715;BME280;39608;55.630;37.864;2023-05-01T05:35:21;98625.69;;;10.36;63.88
53715;BME280;39608;55.630;37.864;2023-05-01T05:40:24;98627.78;;;10.48;64.13
53715;BME280;39608;55.630;37.864;2023-05-01T05:45:26;98607.22;;;10.47;63.31
53715;BME280;39608;55.630;37.864;2023-05-01T05:50:29;98623.47;;;10.56;63.33
53715;BME280;39608;55.630;37.864;2023-05-01T05:55:32;98639.16;;;10.68;63.24
53715;BME280;39608;55.630;37.864;2023-05-01T06:00:35;98623.94;;;10.49;63.69
53715;BME280;39608;55.630;37.864;2023-05-01T06:05:37;98626.69;;;10.67;63.33
53715;BME280;39608;55.630;37.864;2023-05-01T06:10:42;98615.53;;;10.59;63.14
53715;BME280;39608;55.630;37.864;2023-05-01T06:15:45;98626.53;;;10.63;62.45
53715;BME280;39608;55.630;37.864;2023-05-01T06:20:47;98613.78;;;10.55;62.46
53715;BME280;39608;55.630;37.864;2023-05-01T06:25:51;98648.09;;;10.94;62.51
53715;BME280;39608;55.630;37.864;2023-05-01T06:30:53;98660.22;;;11.06;62.06
53715;BME280;39608;55.630;37.864;2023-05-01T06:35:56;98641.88;;;11.03;62.10
53715;BME280;39608;55.630;37.864;2023-05-01T06:41:00;98682.41;;;11.34;60.77
53715;BME280;39608;55.630;37.864;2023-05-01T06:46:03;98680.19;;;11.36;61.33
53715;BME280;39608;55.630;37.864;2023-05-01T06:51:05;98659.09;;;11.24;61.43
53715;BME280;39608;55.630;37.864;2023-05-01T06:56:09;98669.63;;;11.26;60.62
53715;BME280;39608;55.630;37.864;2023-05-01T07:01:11;98698.06;;;11.37;60.62
53715;BME280;39608;55.630;37.864;2023-05-01T07:06:13;98705.06;;;11.47;60.21
53715;BME280;39608;55.630;37.864;2023-05-01T07:11:16;98693.75;;;11.45;60.19
53715;BME280;39608;55.630;37.864;2023-05-01T07:16:20;98710.34;;;11.61;59.69
53715;BME280;39608;55.630;37.864;2023-05-01T07:21:22;98720.69;;;11.76;59.34
53715;BME280;39608;55.630;37.864;2023-05-01T07:26:26;98712.84;;;11.92;58.45
53715;BME280;39608;55.630;37.864;2023-05-01T07:31:28;98700.06;;;12.02;58.26
53715;BME280;39608;55.630;37.864;2023-05-01T07:36:30;98726.22;;;12.24;57.89
53715;BME280;39608;55.630;37.864;2023-05-01T07:41:34;98750.66;;;12.32;57.15
53715;BME280;39608;55.630;37.864;2023-05-01T07:46:37;98742.53;;;12.24;57.15
53715;BME280;39608;55.630;37.864;2023-05-01T07:51:39;98754.97;;;12.33;56.84
53715;BME280;39608;55.630;37.864;2023-05-01T07:56:42;98762.47;;;12.37;56.40
53715;BME280;39608;55.630;37.864;2023-05-01T08:01:44;98775.69;;;12.56;55.92
53715;BME280;39608;55.630;37.864;2023-05-01T08:06:46;98777.47;;;12.90;55.94
53715;BME280;39608;55.630;37.864;2023-05-01T08:11:50;98766.34;;;13.04;54.30
53715;BME280;39608;55.630;37.864;2023-05-01T08:16:52;98768.00;;;13.17;54.37
53715;BME280;39608;55.630;37.864;2023-05-01T08:21:55;98773.97;;;13.41;53.48
53715;BME280;39608;55.630;37.864;2023-05-01T08:26:58;98792.50;;;13.68;53.34
53715;BME280;39608;55.630;37.864;2023-05-01T08:32:00;98788.16;;;13.89;52.82
53715;BME280;39608;55.630;37.864;2023-05-01T08:37:02;98794.38;;;13.77;52.76
53715;BME280;39608;55.630;37.864;2023-05-01T08:42:07;98809.38;;;13.62;52.51
53715;BME280;39608;55.630;37.864;2023-05-01T08:47:10;98817.16;;;13.51;53.08
53715;BME280;39608;55.630;37.864;2023-05-01T08:52:16;98810.16;;;13.41;52.45
53715;BME280;39608;55.630;37.864;2023-05-01T08:57:20;98811.38;;;13.23;52.29
53715;BME280;39608;55.630;37.864;2023-05-01T09:02:23;98814.63;;;13.16;52.30
53715;BME280;39608;55.630;37.864;2023-05-01T09:07:28;98818.59;;;13.18;51.96
53715;BME280;39608;55.630;37.864;2023-05-01T09:12:32;98830.63;;;13.17;51.58
53715;BME280;39608;55.630;37.864;2023-05-01T09:17:36;98839.34;;;13.02;51.41
53715;BME280;39608;55.630;37.864;2023-05-01T09:22:38;98850.38;;;13.06;51.73
53715;BME280;39608;55.630;37.864;2023-05-01T09:27:43;98850.34;;;13.14;51.90
53715;BME280;39608;55.630;37.864;2023-05-01T09:32:45;98854.66;;;13.15;52.39
53715;BME280;39608;55.630;37.864;2023-05-01T09:38:04;98865.28;;;13.08;51.84
53715;BME280;39608;55.630;37.864;2023-05-01T09:43:08;98863.28;;;13.17;50.28
53715;BME280;39608;55.630;37.864;2023-05-01T09:48:11;98836.28;;;12.74;50.22
53715;BME280;39608;55.630;37.864;2023-05-01T09:53:13;98870.00;;;12.90;50.38
53715;BME280;39608;55.630;37.864;2023-05-01T09:58:27;98866.84;;;13.09;50.42
53715;BME280;39608;55.630;37.864;2023-05-01T10:03:29;98876.72;;;13.23;50.06
53715;BME280;39608;55.630;37.864;2023-05-01T10:08:46;98867.94;;;13.56;49.52
53715;BME280;39608;55.630;37.864;2023-05-01T10:14:08;98865.47;;;13.63;49.50
53715;BME280;39608;55.630;37.864;2023-05-01T10:19:11;98891.06;;;13.92;49.11
53715;BME280;39608;55.630;37.864;2023-05-01T10:24:14;98894.53;;;14.01;48.44
53715;BME280;39608;55.630;37.864;2023-05-01T10:29:19;98877.75;;;13.90;48.48
53715;BME280;39608;55.630;37.864;2023-05-01T10:34:24;98904.69;;;13.71;48.41
53715;BME280;39608;55.630;37.864;2023-05-01T10:39:32;98899.97;;;13.59;48.70
53715;BME280;39608;55.630;37.864;2023-05-01T10:44:35;98903.88;;;13.70;48.58
53715;BME280;39608;55.630;37.864;2023-05-01T10:50:02;98928.38;;;14.00;47.92
53715;BME280;39608;55.630;37.864;2023-05-01T10:55:31;98925.56;;;13.88;48.20
53715;BME280;39608;55.630;37.864;2023-05-01T11:00:34;98934.72;;;13.62;48.09
53715;BME280;39608;55.630;37.864;2023-05-01T11:06:04;98954.69;;;13.27;49.17
53715;BME280;39608;55.630;37.864;2023-05-01T11:16:45;98968.47;;;12.31;50.72
53715;BME280;39608;55.630;37.864;2023-05-01T11:21:49;98977.44;;;12.05;51.19
53715;BME280;39608;55.630;37.864;2023-05-01T11:26:52;98993.97;;;11.86;51.48
53715;BME280;39608;55.630;37.864;2023-05-01T11:31:55;99020.03;;;11.87;51.93
53715;BME280;39608;55.630;37.864;2023-05-01T11:36:58;99023.06;;;11.77;51.99
53715;BME280;39608;55.630;37.864;2023-05-01T11:42:06;99023.34;;;11.35;52.63
53715;BME280;39608;55.630;37.864;2023-05-01T11:47:10;99038.88;;;11.12;52.85
53715;BME280;39608;55.630;37.864;2023-05-01T11:52:13;99055.47;;;10.88;52.92
53715;BME280;39608;55.630;37.864;2023-05-01T11:57:15;99054.41;;;10.52;54.50
53715;BME280;39608;55.630;37.864;2023-05-01T12:02:21;99063.13;;;10.49;53.67
53715;BME280;39608;55.630;37.864;2023-05-01T12:07:23;99088.38;;;10.36;53.91
53715;BME280;39608;55.630;37.864;2023-05-01T12:12:25;99090.75;;;10.09;54.43
53715;BME280;39608;55.630;37.864;2023-05-01T12:17:29;99079.63;;;9.97;54.95
53715;BME280;39608;55.630;37.864;2023-05-01T12:22:31;99071.69;;;9.73;55.73
53715;BME280;39608;55.630;37.864;2023-05-01T12:27:41;99100.59;;;9.77;55.38
53715;BME280;39608;55.630;37.864;2023-05-01T12:32:45;99127.75;;;9.58;55.50
53715;BME280;39608;55.630;37.864;2023-05-01T12:37:47;99130.41;;;9.45;55.26
53715;BME280;39608;55.630;37.864;2023-05-01T12:42:54;99155.44;;;9.36;55.76
53715;BME280;39608;55.630;37.864;2023-05-01T12:47:58;99149.38;;;9.25;55.70
53715;BME280;39608;55.630;37.864;2023-05-01T12:53:01;99167.97;;;9.13;55.97
53715;BME280;39608;55.630;37.864;2023-05-01T12:58:04;99166.03;;;9.00;56.69
53715;BME280;39608;55.630;37.864;2023-05-01T13:03:07;99175.94;;;9.04;57.01
53715;BME280;39608;55.630;37.864;2023-05-01T13:08:09;99191.81;;;8.92;56.78
53715;BME280;39608;55.630;37.864;2023-05-01T13:13:12;99195.16;;;8.84;56.17
53715;BME280;39608;55.630;37.864;2023-05-01T13:18:16;99202.47;;;8.83;57.19
53715;BME280;39608;55.630;37.864;2023-05-01T13:23:18;99218.69;;;8.83;56.74
53715;BME280;39608;55.630;37.864;2023-05-01T13:28:20;99228.88;;;8.67;57.21
53715;BME280;39608;55.630;37.864;2023-05-01T13:33:24;99221.94;;;8.61;57.08
53715;BME280;39608;55.630;37.864;2023-05-01T13:38:26;99227.94;;;8.58;57.52
53715;BME280;39608;55.630;37.864;2023-05-01T13:43:28;99235.78;;;8.54;57.50
53715;BME280;39608;55.630;37.864;2023-05-01T13:48:31;99256.66;;;8.49;57.30
53715;BME280;39608;55.630;37.864;2023-05-01T13:53:33;99235.44;;;8.37;57.77
53715;BME280;39608;55.630;37.864;2023-05-01T13:58:36;99250.31;;;8.34;57.79
53715;BME280;39608;55.630;37.864;2023-05-01T14:03:40;99257.34;;;8.35;58.23
53715;BME280;39608;55.630;37.864;2023-05-01T14:08:43;99273.56;;;8.35;58.32
53715;BME280;39608;55.630;37.864;2023-05-01T14:13:46;99269.75;;;8.36;57.98
53715;BME280;39608;55.630;37.864;2023-05-01T14:18:54;99261.88;;;8.40;58.48
53715;BME280;39608;55.630;37.864;2023-05-01T14:23:56;99266.63;;;8.53;58.49
53715;BME280;39608;55.630;37.864;2023-05-01T14:28:59;99270.75;;;8.70;58.52
53715;BME280;39608;55.630;37.864;2023-05-01T14:34:04;99278.25;;;8.78;57.73
53715;BME280;39608;55.630;37.864;2023-05-01T14:39:07;99268.28;;;8.73;58.03
53715;BME280;39608;55.630;37.864;2023-05-01T14:44:13;99285.84;;;8.76;58.46
53715;BME280;39608;55.630;37.864;2023-05-01T14:49:19;99284.56;;;8.68;58.60
53715;BME280;39608;55.630;37.864;2023-05-01T14:54:22;99289.59;;;8.80;58.54
53715;BME280;39608;55.630;37.864;2023-05-01T14:59:24;99298.09;;;8.93;58.05
53715;BME280;39608;55.630;37.864;2023-05-01T15:04:27;99314.69;;;9.05;58.16
53715;BME280;39608;55.630;37.864;2023-05-01T15:09:29;99311.88;;;9.15;57.27
53715;BME280;39608;55.630;37.864;2023-05-01T15:14:31;99312.63;;;9.21;57.12
53715;BME280;39608;55.630;37.864;2023-05-01T15:19:34;99306.75;;;9.14;56.39
53715;BME280;39608;55.630;37.864;2023-05-01T15:24:36;99334.84;;;9.18;56.51
53715;BME280;39608;55.630;37.864;2023-05-01T15:29:38;99314.59;;;9.15;56.27
53715;BME280;39608;55.630;37.864;2023-05-01T15:34:42;99331.31;;;9.17;56.50
53715;BME280;39608;55.630;37.864;2023-05-01T15:39:44;99351.44;;;9.11;56.16
53715;BME280;39608;55.630;37.864;2023-05-01T15:44:46;99347.91;;;9.11;56.49
53715;BME280;39608;55.630;37.864;2023-05-01T15:49:50;99371.69;;;9.14;56.53
53715;BME280;39608;55.630;37.864;2023-05-01T15:54:53;99383.06;;;9.11;56.08
53715;BME280;39608;55.630;37.864;2023-05-01T15:59:55;99387.19;;;9.08;56.17
53715;BME280;39608;55.630;37.864;2023-05-01T16:04:59;99390.69;;;9.08;55.87
53715;BME280;39608;55.630;37.864;2023-05-01T16:10:01;99412.81;;;9.11;55.82
53715;BME280;39608;55.630;37.864;2023-05-01T16:15:05;99420.19;;;9.05;55.95
53715;BME280;39608;55.630;37.864;2023-05-01T16:20:11;99425.06;;;9.08;55.43
53715;BME280;39608;55.630;37.864;2023-05-01T16:25:13;99434.25;;;9.07;55.70
53715;BME280;39608;55.630;37.864;2023-05-01T16:30:16;99432.34;;;9.07;55.50
53715;BME280;39608;55.630;37.864;2023-05-01T16:35:25;99437.53;;;9.04;55.31
53715;BME280;39608;55.630;37.864;2023-05-01T16:40:27;99461.53;;;9.11;55.26
53715;BME280;39608;55.630;37.864;2023-05-01T16:45:30;99466.38;;;9.14;55.09
53715;BME280;39608;55.630;37.864;2023-05-01T16:50:36;99458.31;;;9.08;55.01
53715;BME280;39608;55.630;37.864;2023-05-01T16:55:39;99468.47;;;9.22;54.78
53715;BME280;39608;55.630;37.864;2023-05-01T17:00:41;99469.47;;;9.02;55.60
53715;BME280;39608;55.630;37.864;2023-05-01T17:05:45;99461.91;;;8.99;55.47
53715;BME280;39608;55.630;37.864;2023-05-01T17:10:47;99479.53;;;8.96;55.30
53715;BME280;39608;55.630;37.864;2023-05-01T17:15:49;99493.63;;;8.93;54.93
53715;BME280;39608;55.630;37.864;2023-05-01T17:20:53;99495.75;;;8.96;55.12
53715;BME280;39608;55.630;37.864;2023-05-01T17:25:55;99509.31;;;8.91;54.83
53715;BME280;39608;55.630;37.864;2023-05-01T17:30:57;99513.63;;;8.92;54.46
53715;BME280;39608;55.630;37.864;2023-05-01T17:36:01;99518.72;;;8.99;54.48
53715;BME280;39608;55.630;37.864;2023-05-01T17:41:03;99525.22;;;8.98;54.08
53715;BME280;39608;55.630;37.864;2023-05-01T17:46:05;99532.00;;;8.95;54.61
53715;BME280;39608;55.630;37.864;2023-05-01T17:51:09;99530.91;;;8.96;54.63
53715;BME280;39608;55.630;37.864;2023-05-01T17:56:14;99554.97;;;8.98;54.05
53715;BME280;39608;55.630;37.864;2023-05-01T18:01:17;99554.75;;;8.94;54.26
53715;BME280;39608;55.630;37.864;2023-05-01T18:06:20;99562.81;;;8.99;54.14
53715;BME280;39608;55.630;37.864;2023-05-01T18:11:22;99569.84;;;9.00;54.36
53715;BME280;39608;55.630;37.864;2023-05-01T18:16:25;99560.16;;;8.94;54.14
53715;BME280;39608;55.630;37.864;2023-05-01T18:21:28;99565.56;;;8.94;54.52
53715;BME280;39608;55.630;37.864;2023-05-01T18:26:30;99575.66;;;8.83;53.88
53715;BME280;39608;55.630;37.864;2023-05-01T18:31:33;99585.59;;;8.88;53.71
53715;BME280;39608;55.630;37.864;2023-05-01T18:36:38;99592.94;;;8.87;53.69
53715;BME280;39608;55.630;37.864;2023-05-01T18:41:40;99585.13;;;8.81;53.00
53715;BME280;39608;55.630;37.864;2023-05-01T18:46:42;99610.22;;;8.92;53.29
53715;BME280;39608;55.630;37.864;2023-05-01T18:51:46;99609.34;;;8.96;53.24
53715;BME280;39608;55.630;37.864;2023-05-01T18:56:48;99616.41;;;8.92;52.88
53715;BME280;39608;55.630;37.864;2023-05-01T19:01:50;99629.09;;;8.97;53.04
53715;BME280;39608;55.630;37.864;2023-05-01T19:06:54;99622.38;;;8.94;52.72
53715;BME280;39608;55.630;37.864;2023-05-01T19:11:56;99636.41;;;8.96;52.89
53715;BME280;39608;55.630;37.864;2023-05-01T19:16:58;99655.06;;;8.98;53.09
53715;BME280;39608;55.630;37.864;2023-05-01T19:22:02;99645.59;;;8.95;52.02
53715;BME280;39608;55.630;37.864;2023-05-01T19:27:04;99651.56;;;8.92;52.34
53715;BME280;39608;55.630;37.864;2023-05-01T19:32:06;99646.72;;;8.89;53.09
53715;BME280;39608;55.630;37.864;2023-05-01T19:37:09;99639.97;;;8.86;52.94
53715;BME280;39608;55.630;37.864;2023-05-01T19:42:11;99642.19;;;8.79;52.73
53715;BME280;39608;55.630;37.864;2023-05-01T19:47:13;99649.50;;;8.79;52.95
53715;BME280;39608;55.630;37.864;2023-05-01T19:52:17;99653.53;;;8.81;52.52
53715;BME280;39608;55.630;37.864;2023-05-01T19:57:19;99657.06;;;8.82;52.48
53715;BME280;39608;55.630;37.864;2023-05-01T20:02:22;99667.88;;;8.77;52.40
53715;BME280;39608;55.630;37.864;2023-05-01T20:07:25;99676.84;;;8.72;51.96
53715;BME280;39608;55.630;37.864;2023-05-01T20:12:28;99675.56;;;8.59;51.82
53715;BME280;39608;55.630;37.864;2023-05-01T20:17:32;99683.41;;;8.50;51.86
53715;BME280;39608;55.630;37.864;2023-05-01T20:22:36;99686.41;;;8.44;51.78
53715;BME280;39608;55.630;37.864;2023-05-01T20:27:38;99691.03;;;8.33;51.80
53715;BME280;39608;55.630;37.864;2023-05-01T20:32:40;99701.31;;;8.26;51.71
53715;BME280;39608;55.630;37.864;2023-05-01T20:37:45;99699.44;;;8.21;51.65
53715;BME280;39608;55.630;37.864;2023-05-01T20:42:47;99705.13;;;8.09;51.64
53715;BME280;39608;55.630;37.864;2023-05-01T20:47:49;99717.84;;;8.09;51.53
53715;BME280;39608;55.630;37.864;2023-05-01T20:52:53;99721.63;;;8.08;51.77
53715;BME280;39608;55.630;37.864;2023-05-01T20:57:55;99730.53;;;8.03;51.64
53715;BME280;39608;55.630;37.864;2023-05-01T21:02:58;99730.53;;;7.93;51.82
53715;BME280;39608;55.630;37.864;2023-05-01T21:08:02;99743.78;;;7.89;51.94
53715;BME280;39608;55.630;37.864;2023-05-01T21:13:04;99752.97;;;7.83;51.83
53715;BME280;39608;55.630;37.864;2023-05-01T21:18:07;99757.00;;;7.80;51.97
53715;BME280;39608;55.630;37.864;2023-05-01T21:23:13;99769.97;;;7.78;51.69
53715;BME280;39608;55.630;37.864;2023-05-01T21:28:16;99767.03;;;7.69;51.92
53715;BME280;39608;55.630;37.864;2023-05-01T21:33:18;99778.59;;;7.65;51.98
53715;BME280;39608;55.630;37.864;2023-05-01T21:38:21;99784.53;;;7.62;52.00
53715;BME280;39608;55.630;37.864;2023-05-01T21:43:23;99799.63;;;7.52;52.25
53715;BME280;39608;55.630;37.864;2023-05-01T21:48:27;99813.41;;;7.56;52.14
53715;BME280;39608;55.630;37.864;2023-05-01T21:53:34;99805.31;;;7.46;52.20
53715;BME280;39608;55.630;37.864;2023-05-01T21:58:37;99822.28;;;7.41;52.24
53715;BME280;39608;55.630;37.864;2023-05-01T22:03:39;99829.84;;;7.39;52.34
53715;BME280;39608;55.630;37.864;2023-05-01T22:08:43;99841.16;;;7.36;52.40
53715;BME280;39608;55.630;37.864;2023-05-01T22:13:45;99837.88;;;7.29;52.56
53715;BME280;39608;55.630;37.864;2023-05-01T22:18:47;99853.28;;;7.28;52.95
53715;BME280;39608;55.630;37.864;2023-05-01T22:23:51;99862.44;;;7.27;52.67
53715;BME280;39608;55.630;37.864;2023-05-01T22:28:53;99847.56;;;7.14;52.86
53715;BME280;39608;55.630;37.864;2023-05-01T22:33:55;99853.75;;;7.10;52.63
53715;BME280;39608;55.630;37.864;2023-05-01T22:38:58;99861.53;;;7.06;52.59
53715;BME280;39608;55.630;37.864;2023-05-01T22:44:00;99857.16;;;6.95;52.88
53715;BME280;39608;55.630;37.864;2023-05-01T22:49:02;99868.25;;;6.98;52.56
53715;BME280;39608;55.630;37.864;2023-05-01T22:54:06;99881.75;;;6.98;52.87
53715;BME280;39608;55.630;37.864;2023-05-01T22:59:08;99878.47;;;6.91;52.77
53715;BME280;39608;55.630;37.864;2023-05-01T23:04:10;99877.88;;;6.84;53.17
53715;BME280;39608;55.630;37.864;2023-05-01T23:09:14;99889.47;;;6.84;53.12
53715;BME280;39608;55.630;37.864;2023-05-01T23:14:17;99891.56;;;6.72;53.23
53715;BME280;39608;55.630;37.864;2023-05-01T23:19:20;99900.69;;;6.71;53.27
53715;BME280;39608;55.630;37.864;2023-05-01T23:24:24;99916.41;;;6.79;53.30
53715;BME280;39608;55.630;37.864;2023-05-01T23:29:26;99926.34;;;6.74;53.22
53715;BME280;39608;55.630;37.864;2023-05-01T23:34:28;99923.84;;;6.67;53.24
53715;BME280;39608;55.630;37.864;2023-05-01T23:39:31;99940.34;;;6.71;53.28
53715;BME280;39608;55.630;37.864;2023-05-01T23:44:33;99939.75;;;6.63;53.42
53715;BME280;39608;55.630;37.864;2023-05-01T23:49:35;99948.31;;;6.60;53.66
53715;BME280;39608;55.630;37.864;2023-05-01T23:54:39;99949.94;;;6.61;53.71
53715;BME280;39608;55.630;37.864;2023-05-01T23:59:41;99945.34;;;6.57;53.50
